Time;durP1;ratioP1;P1;durP2;ratioP2;P2;SDS_P1;SDS_P2;PMS_P1;PMS_P2;Temp;Humidity;BMP_temperature;BMP_pressure;BME280_temperature;BME280_humidity;BME280_pressure;Samples;Min_cycle;Max_cycle;Signal;HPM_P1;HPM_P2
2024/02/15 00:00:17;;;;;;;0.10;0.10;;;;;;;14.65;75.21;101684.06;5086771;28;20034;-80
2024/02/15 00:02:45;;;;;;;0.17;0.17;;;;;;;14.65;75.25;101683.19;5085780;28;20028;-81
2024/02/15 00:05:12;;;;;;;0.30;0.30;;;;;;;14.68;75.34;101691.13;5090100;28;20087;-81
2024/02/15 00:07:39;;;;;;;0.52;0.52;;;;;;;14.70;75.10;101686.63;5091325;28;20028;-80
2024/02/15 00:10:08;;;;;;;0.10;0.10;;;;;;;14.75;74.93;101687.38;5085369;28;20111;-80
2024/02/15 00:12:34;;;;;;;0.10;0.10;;;;;;;14.78;74.90;101690.00;5090159;28;20166;-80
2024/02/15 00:15:00;;;;;;;0.10;0.10;;;;;;;14.77;75.05;101688.25;5084776;28;20035;-80
2024/02/15 00:17:29;;;;;;;0.10;0.10;;;;;;;14.75;75.04;101683.84;5087174;28;20027;-79
2024/02/15 00:19:55;;;;;;;0.10;0.10;;;;;;;14.76;75.06;101681.13;5086374;28;20040;-80
2024/02/15 00:22:21;;;;;;;0.10;0.10;;;;;;;14.75;74.97;101681.19;5089098;28;20391;-79
2024/02/15 00:24:49;;;;;;;0.20;0.20;;;;;;;14.79;74.93;101677.53;5084558;28;20095;-79
2024/02/15 00:27:15;;;;;;;0.10;0.10;;;;;;;14.73;74.79;101681.22;5086759;28;20100;-80
2024/02/15 00:29:42;;;;;;;0.10;0.10;;;;;;;14.73;75.00;101678.56;5088125;28;20573;-78
2024/02/15 00:32:10;;;;;;;0.10;0.10;;;;;;;14.73;75.06;101681.22;5091125;28;20043;-79
2024/02/15 00:34:38;;;;;;;0.10;0.10;;;;;;;14.67;75.00;101678.72;5094761;28;20399;-80
2024/02/15 00:37:05;;;;;;;0.85;0.82;;;;;;;14.69;74.84;101674.19;5095850;28;20089;-80
2024/02/15 00:39:31;;;;;;;0.10;0.10;;;;;;;14.73;74.53;101678.56;5096720;28;20052;-78
2024/02/15 00:42:00;;;;;;;0.80;0.80;;;;;;;14.65;74.87;101677.84;5093995;28;20020;-79
2024/02/15 00:44:27;;;;;;;2.10;1.95;;;;;;;14.66;74.98;101679.63;5097404;28;20016;-79
2024/02/15 00:46:53;;;;;;;0.00;0.00;;;;;;;14.56;75.17;101673.59;5094186;28;20118;-79
2024/02/15 00:49:20;;;;;;;0.10;0.10;;;;;;;14.69;75.11;101675.09;5094878;28;20016;-80
2024/02/15 00:51:46;;;;;;;0.10;0.10;;;;;;;14.63;74.94;101668.97;5098800;28;20161;-81
2024/02/15 00:54:13;;;;;;;0.10;0.10;;;;;;;14.62;75.29;101661.91;5095893;28;20036;-79
2024/02/15 00:56:39;;;;;;;0.20;0.20;;;;;;;14.68;75.02;101661.78;5101748;28;20043;-79
2024/02/15 00:59:06;;;;;;;0.20;0.20;;;;;;;14.61;75.20;101654.81;5099456;28;20038;-79
2024/02/15 01:01:32;;;;;;;0.10;0.10;;;;;;;14.63;75.46;101658.31;5094783;28;20032;-80
2024/02/15 01:03:59;;;;;;;0.00;0.00;;;;;;;14.53;75.48;101663.88;5088566;28;20481;-80
2024/02/15 01:06:25;;;;;;;0.30;0.30;;;;;;;14.57;75.63;101659.34;5096928;28;20130;-80
2024/02/15 01:08:51;;;;;;;0.22;0.22;;;;;;;14.56;75.44;101663.78;5098971;28;20100;-80
2024/02/15 01:11:17;;;;;;;0.45;0.45;;;;;;;14.55;75.58;101662.06;5096670;28;20032;-80
2024/02/15 01:13:44;;;;;;;0.10;0.10;;;;;;;14.55;75.69;101661.16;5097210;28;20032;-80
2024/02/15 01:16:10;;;;;;;0.10;0.10;;;;;;;14.56;75.61;101655.78;5095912;28;20028;-79
2024/02/15 01:18:37;;;;;;;0.65;0.45;;;;;;;14.63;75.60;101647.63;5097337;28;20115;-79
2024/02/15 01:21:04;;;;;;;0.77;0.63;;;;;;;14.66;75.56;101642.28;5092929;28;20020;-81
2024/02/15 01:23:30;;;;;;;0.05;0.05;;;;;;;14.67;75.48;101649.38;5093980;28;20241;-80
2024/02/15 01:25:57;;;;;;;0.10;0.10;;;;;;;14.60;75.79;101648.59;5090938;28;20048;-79
2024/02/15 01:28:23;;;;;;;0.15;0.15;;;;;;;14.68;75.62;101645.78;5092067;28;20040;-79
2024/02/15 01:30:50;;;;;;;0.10;0.10;;;;;;;14.71;75.39;101651.91;5087609;28;20031;-79
2024/02/15 01:33:17;;;;;;;7.88;2.83;;;;;;;14.70;75.28;101654.63;5096248;28;20090;-78
2024/02/15 01:35:43;;;;;;;0.20;0.20;;;;;;;14.76;75.35;101638.47;5093549;28;20085;-79
2024/02/15 01:38:10;;;;;;;0.10;0.10;;;;;;;14.70;74.96;101643.94;5103008;28;20032;-80
2024/02/15 01:40:36;;;;;;;0.10;0.10;;;;;;;14.68;75.18;101643.13;5095146;28;20032;-79
2024/02/15 01:43:03;;;;;;;0.75;0.75;;;;;;;14.66;74.81;101623.59;5086437;28;20024;-79
2024/02/15 01:45:30;;;;;;;0.10;0.10;;;;;;;14.65;74.77;101629.84;5090404;28;20034;-80
2024/02/15 01:47:56;;;;;;;0.10;0.10;;;;;;;14.61;74.95;101633.47;5099215;28;20040;-81
2024/02/15 01:50:24;;;;;;;0.10;0.10;;;;;;;14.64;74.75;101633.38;5099049;28;20446;-80
2024/02/15 01:52:54;;;;;;;1.00;0.82;;;;;;;14.57;74.96;101633.53;5094727;28;20024;-80
2024/02/15 01:55:21;;;;;;;2.40;0.63;;;;;;;14.52;74.75;101632.78;5101006;28;20020;-79
2024/02/15 01:57:49;;;;;;;0.22;0.22;;;;;;;14.46;74.62;101635.59;5104195;28;20035;-80
2024/02/15 02:00:18;;;;;;;0.10;0.10;;;;;;;14.42;74.83;101623.25;5094422;28;20024;-79
2024/02/15 02:02:47;;;;;;;0.10;0.10;;;;;;;14.38;74.86;101624.22;5098491;28;20028;-80
2024/02/15 02:05:13;;;;;;;0.10;0.10;;;;;;;14.35;75.05;101621.63;5103110;28;20033;-80
2024/02/15 02:07:40;;;;;;;0.20;0.20;;;;;;;14.28;75.40;101623.59;5101942;28;20062;-80
2024/02/15 02:10:11;;;;;;;0.10;0.10;;;;;;;14.30;75.34;101618.22;5100514;28;20024;-80
2024/02/15 02:12:39;;;;;;;1.88;1.17;;;;;;;14.18;75.51;101622.91;5100124;28;20491;-81
2024/02/15 02:15:07;;;;;;;0.20;0.20;;;;;;;14.26;75.54;101617.41;5095018;28;20036;-82
2024/02/15 02:17:34;;;;;;;0.10;0.10;;;;;;;14.27;75.53;101607.59;5095230;28;20028;-79
2024/02/15 02:20:00;;;;;;;0.10;0.10;;;;;;;14.20;75.80;101613.06;5099515;28;20075;-79
2024/02/15 02:22:26;;;;;;;0.30;0.30;;;;;;;14.21;75.86;101606.81;5099597;28;20024;-79
2024/02/15 02:25:09;;;;;;;0.10;0.10;;;;;;;14.34;75.76;101611.88;5093978;28;20024;-78
2024/02/15 02:27:36;;;;;;;;;;;;;;;14.43;75.53;101609.00;5094512;28;20028;-79
2024/02/15 02:30:06;;;;;;;0.47;0.47;;;;;;;14.20;76.22;101614.88;5098261;28;19909;-81
2024/02/15 02:32:35;;;;;;;0.22;0.22;;;;;;;14.27;76.13;101612.94;5093648;28;20032;-77
2024/02/15 02:35:03;;;;;;;0.10;0.10;;;;;;;14.29;76.04;101600.44;5088388;28;20050;-77
2024/02/15 02:37:29;;;;;;;0.10;0.10;;;;;;;14.31;75.99;101601.31;5097327;28;20538;-78
2024/02/15 02:39:55;;;;;;;0.10;0.10;;;;;;;14.37;75.78;101603.81;5094691;28;20033;-77
2024/02/15 02:42:23;;;;;;;0.10;0.10;;;;;;;14.35;75.68;101595.84;5103656;28;20024;-77
2024/02/15 02:44:49;;;;;;;0.10;0.10;;;;;;;14.32;75.93;101605.72;5081075;28;20028;-79
2024/02/15 02:47:16;;;;;;;0.10;0.10;;;;;;;14.40;75.88;101603.75;5099572;28;20043;-79
2024/02/15 02:49:42;;;;;;;0.17;0.17;;;;;;;14.38;75.80;101605.56;5097733;28;20020;-79
2024/02/15 02:52:09;;;;;;;0.50;0.50;;;;;;;14.36;75.65;101600.25;5100015;28;20089;-79
2024/02/15 02:54:35;;;;;;;0.10;0.10;;;;;;;14.40;75.74;101603.75;5097557;28;20059;-79
2024/02/15 02:57:01;;;;;;;0.10;0.10;;;;;;;14.40;75.64;101598.41;5097900;28;20028;-80
2024/02/15 02:59:28;;;;;;;0.77;0.77;;;;;;;14.42;75.68;101606.34;5102112;28;20030;-79
2024/02/15 03:01:56;;;;;;;0.20;0.20;;;;;;;14.41;75.67;101600.16;5097275;28;20040;-79
2024/02/15 03:04:22;;;;;;;0.15;0.15;;;;;;;14.36;75.47;101592.25;5099606;28;20027;-78
2024/02/15 03:06:48;;;;;;;0.93;0.63;;;;;;;14.35;75.85;101589.66;5102608;28;20052;-78
2024/02/15 03:09:15;;;;;;;0.10;0.10;;;;;;;14.35;75.98;101589.66;5101259;28;20028;-78
2024/02/15 03:11:41;;;;;;;0.85;0.85;;;;;;;14.42;75.55;101585.94;5099167;28;20028;-79
2024/02/15 03:14:07;;;;;;;0.17;0.17;;;;;;;14.46;75.47;101587.59;5095044;28;20103;-79
2024/02/15 03:16:33;;;;;;;2.28;2.10;;;;;;;14.45;75.51;101585.84;5097690;28;20522;-80
2024/02/15 03:19:02;;;;;;;0.10;0.10;;;;;;;14.43;75.59;101582.34;5094064;28;20119;-80
2024/02/15 03:21:29;;;;;;;2.50;2.08;;;;;;;14.48;75.68;101579.53;5098000;28;20022;-79
2024/02/15 03:23:55;;;;;;;0.10;0.10;;;;;;;14.36;75.96;101586.94;5099136;28;20050;-80
2024/02/15 03:26:38;;;;;;;0.10;0.10;;;;;;;14.52;75.98;101587.44;5101675;28;20062;-80
2024/02/15 03:29:04;;;;;;;;;;;;;;;14.62;75.75;101587.22;5102467;28;20016;-79
2024/02/15 03:31:32;;;;;;;0.10;0.10;;;;;;;14.50;75.84;101586.59;5098176;28;19953;-80
2024/02/15 03:33:59;;;;;;;0.20;0.20;;;;;;;14.52;76.13;101582.13;5097491;28;20020;-80
2024/02/15 03:36:25;;;;;;;0.10;0.10;;;;;;;14.55;76.19;101589.16;5096094;28;20055;-80
2024/02/15 03:38:53;;;;;;;0.57;0.57;;;;;;;14.53;76.30;101583.88;5096134;28;20024;-80
2024/02/15 03:41:20;;;;;;;1.65;0.50;;;;;;;14.53;76.62;101588.34;5089991;28;20051;-79
2024/02/15 03:43:47;;;;;;;0.57;0.57;;;;;;;14.50;76.64;101588.41;5092418;28;20085;-79
2024/02/15 03:46:14;;;;;;;0.28;0.28;;;;;;;14.51;76.60;101580.34;5096447;28;20024;-79
2024/02/15 03:48:44;;;;;;;0.20;0.20;;;;;;;14.54;76.70;101582.06;5091425;28;20021;-80
2024/02/15 03:51:10;;;;;;;1.27;0.95;;;;;;;14.47;77.21;101584.03;5093974;28;20024;-78
2024/02/15 03:53:37;;;;;;;0.20;0.20;;;;;;;14.47;77.10;101589.34;5090115;28;20036;-78
2024/02/15 03:56:04;;;;;;;0.10;0.10;;;;;;;14.51;77.03;101583.03;5087950;28;20107;-79
2024/02/15 03:58:32;;;;;;;0.30;0.30;;;;;;;14.52;77.03;101584.78;5096750;28;20024;-80
2024/02/15 04:00:59;;;;;;;0.43;0.43;;;;;;;14.50;77.15;101577.72;5094052;28;20048;-80
2024/02/15 04:03:25;;;;;;;0.10;0.10;;;;;;;14.52;77.08;101575.91;5095034;28;20055;-80
2024/02/15 04:05:52;;;;;;;0.20;0.20;;;;;;;14.45;77.46;101572.50;5091366;28;20057;-80
2024/02/15 04:08:19;;;;;;;0.10;0.10;;;;;;;14.39;77.78;101581.53;5093617;28;20027;-80
2024/02/15 04:10:45;;;;;;;0.08;0.08;;;;;;;14.40;77.94;101577.06;5091924;28;20031;-80
2024/02/15 04:13:12;;;;;;;0.20;0.20;;;;;;;14.46;77.88;101566.25;5095297;28;20028;-79
2024/02/15 04:15:38;;;;;;;0.38;0.38;;;;;;;14.44;77.86;101562.75;5095258;28;20097;-80
2024/02/15 04:18:05;;;;;;;0.30;0.30;;;;;;;14.46;77.85;101558.25;5094877;28;20036;-80
2024/02/15 04:20:31;;;;;;;5.57;2.72;;;;;;;14.32;78.57;101563.94;5092311;28;20070;-80
2024/02/15 04:22:59;;;;;;;0.10;0.10;;;;;;;14.40;78.32;101566.41;5093927;28;20039;-80
2024/02/15 04:25:27;;;;;;;0.13;0.13;;;;;;;14.33;78.82;101560.38;5095221;28;20047;-81
2024/02/15 04:27:54;;;;;;;10.50;1.13;;;;;;;14.32;79.06;101561.28;5095056;28;20053;-80
2024/02/15 04:30:23;;;;;;;0.10;0.10;;;;;;;14.35;78.94;101563.00;5095614;28;20510;-79
2024/02/15 04:32:51;;;;;;;0.22;0.22;;;;;;;14.33;78.89;101549.69;5095289;28;20031;-79
2024/02/15 04:35:17;;;;;;;1.85;0.95;;;;;;;14.35;79.08;101552.31;5096457;28;20023;-79
2024/02/15 04:37:43;;;;;;;0.20;0.20;;;;;;;14.31;79.34;101540.00;5094067;28;20406;-79
2024/02/15 04:40:12;;;;;;;0.60;0.60;;;;;;;14.32;79.31;101539.09;5094077;28;20032;-79
2024/02/15 04:42:39;;;;;;;0.73;0.73;;;;;;;14.30;79.65;101543.56;5091969;28;20372;-79
2024/02/15 04:45:14;;;;;;;0.13;0.13;;;;;;;14.26;79.96;101547.22;5087152;28;20024;-79
2024/02/15 04:47:41;;;;;;;0.10;0.10;;;;;;;14.20;80.55;101549.09;5088907;28;20373;-79
2024/02/15 04:50:09;;;;;;;0.13;0.13;;;;;;;14.33;79.81;101564.81;5094069;28;20028;-80
2024/02/15 04:52:35;;;;;;;0.10;0.10;;;;;;;14.31;80.04;101564.00;5095635;28;20095;-79
2024/02/15 04:55:05;;;;;;;0.30;0.30;;;;;;;14.24;80.56;101572.13;5097327;28;20078;-79
2024/02/15 04:57:34;;;;;;;0.30;0.30;;;;;;;14.25;80.66;101583.66;5096075;28;20036;-80
2024/02/15 05:00:00;;;;;;;0.35;0.35;;;;;;;14.35;80.02;101578.97;5087881;28;20027;-79
2024/02/15 05:02:26;;;;;;;0.10;0.10;;;;;;;14.27;80.63;101580.94;5094751;28;20024;-79
2024/02/15 05:04:56;;;;;;;0.25;0.25;;;;;;;14.31;80.56;101567.50;5089588;28;20108;-79
2024/02/15 05:07:22;;;;;;;0.10;0.10;;;;;;;14.24;80.63;101565.91;5096050;28;20085;-80
2024/02/15 05:09:52;;;;;;;0.17;0.17;;;;;;;14.32;80.62;101533.75;5094430;28;20029;-80
2024/02/15 05:12:25;;;;;;;0.65;0.32;;;;;;;14.35;80.53;101515.88;5097130;28;20484;-80
2024/02/15 05:14:53;;;;;;;1.95;1.17;;;;;;;14.35;80.44;101501.69;5093517;28;20024;-80
2024/02/15 05:17:19;;;;;;;0.10;0.10;;;;;;;14.32;80.60;101489.31;5091138;28;20027;-80
2024/02/15 05:19:46;;;;;;;0.10;0.10;;;;;;;14.31;80.38;101489.34;5090614;28;20045;-80
2024/02/15 05:22:13;;;;;;;0.40;0.40;;;;;;;14.35;80.18;101504.34;5088311;28;20083;-80
2024/02/15 05:24:39;;;;;;;0.20;0.20;;;;;;;14.28;80.44;101502.72;5092008;28;20016;-81
2024/02/15 05:27:05;;;;;;;0.22;0.22;;;;;;;14.27;80.09;101509.88;5095915;28;20039;-80
2024/02/15 05:29:34;;;;;;;0.30;0.30;;;;;;;14.33;79.93;101511.50;5094860;28;20027;-79
2024/02/15 05:32:01;;;;;;;0.10;0.10;;;;;;;14.20;80.43;101509.13;5094741;28;20073;-79
2024/02/15 05:34:29;;;;;;;0.20;0.20;;;;;;;14.27;80.46;101500.97;5097529;28;20103;-80
2024/02/15 05:36:55;;;;;;;0.20;0.20;;;;;;;14.26;80.26;101502.78;5094551;28;20038;-79
2024/02/15 05:39:23;;;;;;;0.10;0.10;;;;;;;14.28;80.18;101497.41;5097061;28;20032;-80
2024/02/15 05:41:49;;;;;;;5.38;1.08;;;;;;;14.30;80.38;101495.59;5096078;28;20040;-79
2024/02/15 05:44:20;;;;;;;0.20;0.20;;;;;;;14.30;80.25;101503.59;5094285;28;20107;-79
2024/02/15 05:46:47;;;;;;;0.13;0.13;;;;;;;14.32;80.09;101505.28;5093550;28;20028;-79
2024/02/15 05:49:17;;;;;;;0.10;0.10;;;;;;;14.33;80.13;101506.16;5091662;28;21093;-79
2024/02/15 05:51:43;;;;;;;0.30;0.30;;;;;;;14.30;79.93;101507.13;5091562;28;20032;-79
2024/02/15 05:54:09;;;;;;;0.10;0.10;;;;;;;14.31;80.06;101505.34;5091943;28;20024;-79
2024/02/15 05:56:35;;;;;;;0.43;0.43;;;;;;;14.37;79.81;101508.72;5091191;28;20028;-78
2024/02/15 05:59:09;;;;;;;0.10;0.10;;;;;;;14.40;79.66;101513.09;5087720;28;20027;-77
2024/02/15 06:01:37;;;;;;;0.10;0.10;;;;;;;14.34;79.92;101510.59;5091174;28;20023;-78
2024/02/15 06:04:07;;;;;;;0.25;0.25;;;;;;;14.33;79.92;101503.50;5095470;28;20034;-78
2024/02/15 06:06:34;;;;;;;0.10;0.10;;;;;;;14.38;79.62;101504.25;5094149;28;20111;-78
2024/02/15 06:09:02;;;;;;;1.45;1.35;;;;;;;14.32;79.85;101489.31;5083936;28;20020;-78
2024/02/15 06:11:28;;;;;;;0.65;0.32;;;;;;;14.29;80.07;101493.84;5086588;28;20039;-78
2024/02/15 06:13:55;;;;;;;2.15;0.80;;;;;;;14.28;80.24;101486.75;5093572;28;20035;-78
2024/02/15 06:16:21;;;;;;;11.73;1.70;;;;;;;14.32;80.26;101483.09;5093614;28;20038;-79
2024/02/15 06:18:48;;;;;;;0.10;0.10;;;;;;;14.37;79.83;101491.84;5090355;28;20035;-79
2024/02/15 06:21:14;;;;;;;1.92;1.75;;;;;;;14.35;80.18;101491.00;5087513;28;20043;-78
2024/02/15 06:23:40;;;;;;;0.20;0.20;;;;;;;14.29;80.09;101486.69;5091688;28;20501;-78
2024/02/15 06:26:06;;;;;;;0.00;0.00;;;;;;;14.32;80.13;101488.44;5092648;28;20032;-78
2024/02/15 06:39:41;;;;;;;0.40;0.40;;;;;;;14.33;80.08;101476.84;5095054;28;20076;-78
2024/02/15 06:42:09;;;;;;;24.40;1.55;;;;;;;14.33;79.93;101479.50;5091908;28;20491;-77
2024/02/15 06:44:35;;;;;;;0.10;0.10;;;;;;;14.32;80.09;101478.63;5092398;28;20032;-78
2024/02/15 06:47:01;;;;;;;0.10;0.10;;;;;;;14.23;80.52;101463.75;5095546;28;20055;-78
2024/02/15 06:49:28;;;;;;;0.10;0.10;;;;;;;14.31;80.53;101476.03;5095215;28;20036;-78
2024/02/15 06:51:54;;;;;;;1.17;1.08;;;;;;;14.33;80.36;101477.72;5103301;28;20027;-78
2024/02/15 06:54:20;;;;;;;0.10;0.10;;;;;;;14.30;80.34;101475.13;5095881;28;20513;-78
2024/02/15 06:56:47;;;;;;;0.40;0.40;;;;;;;14.30;80.32;101485.78;5077965;28;20036;-80
2024/02/15 06:59:14;;;;;;;0.00;0.00;;;;;;;14.33;80.30;101493.72;5093499;28;20028;-79
2024/02/15 07:01:41;;;;;;;0.30;0.30;;;;;;;14.32;80.30;101499.97;5093642;28;20034;-79
2024/02/15 07:04:11;;;;;;;0.10;0.10;;;;;;;14.32;80.48;101515.97;5094582;28;20029;-79
2024/02/15 07:06:38;;;;;;;0.30;0.30;;;;;;;14.26;80.88;101520.56;5098848;28;20389;-79
2024/02/15 07:09:06;;;;;;;0.52;0.52;;;;;;;14.31;80.64;101522.19;5097866;28;20020;-79
2024/02/15 07:11:34;;;;;;;0.10;0.10;;;;;;;14.29;80.69;101505.34;5103285;28;20028;-78
2024/02/15 07:14:01;;;;;;;1.08;1.08;;;;;;;14.26;80.86;101496.59;5098436;28;20037;-77
2024/02/15 07:16:27;;;;;;;0.10;0.10;;;;;;;14.31;80.62;101497.34;5101395;28;20030;-79
2024/02/15 07:18:53;;;;;;;0.55;0.55;;;;;;;14.31;80.78;101502.69;5100833;28;20032;-80
2024/02/15 07:21:26;;;;;;;0.10;0.10;;;;;;;14.27;81.09;101495.66;5099610;28;20029;-78
2024/02/15 07:23:54;;;;;;;0.20;0.20;;;;;;;14.22;81.17;101509.97;5096648;28;20573;-78
2024/02/15 07:26:24;;;;;;;0.40;0.40;;;;;;;14.26;81.13;101512.59;5096549;28;20031;-78
2024/02/15 07:28:53;;;;;;;0.35;0.35;;;;;;;14.32;81.01;101521.28;5095402;28;20053;-79
2024/02/15 07:31:21;;;;;;;0.30;0.30;;;;;;;14.30;81.11;101516.91;5101537;28;20024;-78
2024/02/15 07:33:48;;;;;;;0.20;0.20;;;;;;;14.33;80.87;101519.50;5096676;28;20020;-78
2024/02/15 07:36:22;;;;;;;0.57;0.57;;;;;;;14.25;81.36;101522.34;5099739;28;20020;-79
2024/02/15 07:38:49;;;;;;;0.10;0.10;;;;;;;14.33;80.99;101516.81;5105797;28;20024;-79
2024/02/15 07:41:22;;;;;;;0.10;0.10;;;;;;;14.39;80.93;101516.66;5095358;28;20043;-78
2024/02/15 07:43:48;;;;;;;0.10;0.10;;;;;;;14.32;80.99;101512.44;5100757;28;20028;-78
2024/02/15 07:46:16;;;;;;;0.00;0.00;;;;;;;14.37;80.82;101507.84;5093609;28;20016;-78
2024/02/15 07:48:45;;;;;;;0.10;0.10;;;;;;;14.35;81.00;101507.00;5099415;28;20028;-77
2024/02/15 07:51:12;;;;;;;0.85;0.85;;;;;;;14.32;81.21;101501.78;5100619;28;20457;-79
2024/02/15 07:53:40;;;;;;;12.50;2.08;;;;;;;14.34;81.27;101497.25;5102333;28;20028;-78
2024/02/15 07:56:06;;;;;;;0.30;0.30;;;;;;;14.35;81.06;101493.69;5100534;28;20055;-78
2024/02/15 07:58:32;;;;;;;0.10;0.10;;;;;;;14.35;81.26;101493.69;5100986;28;20086;-78
2024/02/15 08:00:59;;;;;;;0.10;0.10;;;;;;;14.45;80.95;101499.66;5102772;28;20107;-79
2024/02/15 08:03:29;;;;;;;0.10;0.10;;;;;;;14.45;80.96;101494.31;5102476;28;20050;-79
2024/02/15 08:05:55;;;;;;;0.52;0.52;;;;;;;14.42;81.15;101483.72;5097238;28;20100;-78
2024/02/15 08:08:21;;;;;;;1.67;1.55;;;;;;;14.40;81.23;101486.44;5086944;28;20020;-79
2024/02/15 08:10:51;;;;;;;7.25;5.60;;;;;;;14.44;81.05;101493.44;5089348;28;20073;-76
2024/02/15 08:13:18;;;;;;;0.08;0.08;;;;;;;14.44;80.85;101497.91;5088382;28;20117;-77
2024/02/15 08:15:46;;;;;;;1.35;0.70;;;;;;;14.48;81.03;101484.47;5096530;28;20107;-76
2024/02/15 08:18:12;;;;;;;0.90;0.90;;;;;;;14.38;81.24;101472.25;5098876;28;20032;-79
2024/02/15 08:20:40;;;;;;;0.10;0.10;;;;;;;14.49;81.01;101475.53;5103319;28;20074;-77
2024/02/15 08:23:06;;;;;;;0.13;0.13;;;;;;;14.47;81.16;101463.19;5103122;28;20024;-78
2024/02/15 08:25:32;;;;;;;0.10;0.10;;;;;;;14.49;81.00;101470.22;5102243;28;20042;-79
2024/02/15 08:28:05;;;;;;;0.10;0.10;;;;;;;14.45;81.17;101484.50;5098159;28;20130;-79
2024/02/15 08:30:31;;;;;;;0.10;0.10;;;;;;;14.51;80.94;101489.69;5099029;28;20058;-76
2024/02/15 08:32:58;;;;;;;0.35;0.35;;;;;;;14.46;80.99;101490.75;5096186;28;20074;-78
2024/02/15 08:35:24;;;;;;;0.57;0.57;;;;;;;14.48;81.05;101496.91;5098584;28;20034;-81
2024/02/15 08:37:51;;;;;;;0.28;0.28;;;;;;;14.46;80.87;101486.28;5098530;28;20057;-81
2024/02/15 08:40:19;;;;;;;0.30;0.30;;;;;;;14.47;80.96;101493.38;5091522;28;20728;-77
2024/02/15 08:42:46;;;;;;;0.25;0.25;;;;;;;14.48;80.74;101484.47;5096303;28;20035;-78
2024/02/15 08:45:12;;;;;;;0.20;0.20;;;;;;;14.48;80.94;101487.13;5095348;28;20024;-76
2024/02/15 08:47:40;;;;;;;0.20;0.20;;;;;;;14.51;80.56;101483.50;5094359;28;20062;-76
2024/02/15 08:50:09;;;;;;;0.10;0.10;;;;;;;14.49;81.22;101475.53;5096441;28;20115;-77
2024/02/15 08:52:37;;;;;;;0.65;0.65;;;;;;;14.42;81.18;101479.28;5078168;28;20407;-78
2024/02/15 08:55:06;;;;;;;0.50;0.50;;;;;;;14.47;81.20;101471.16;5103073;28;20166;-81
2024/02/15 08:57:33;;;;;;;0.10;0.10;;;;;;;14.54;81.00;101468.28;5106446;28;20036;-79
2024/02/15 09:00:00;;;;;;;0.50;0.50;;;;;;;14.62;80.94;101464.56;5103826;28;20514;-78
2024/02/15 09:02:26;;;;;;;0.38;0.38;;;;;;;14.59;81.08;101464.63;5099865;28;20036;-78
2024/02/15 09:04:52;;;;;;;0.17;0.15;;;;;;;14.65;80.97;101469.81;5092460;28;20024;-77
2024/02/15 09:07:18;;;;;;;0.30;0.30;;;;;;;14.70;80.71;101470.56;5101444;28;20021;-77
2024/02/15 09:09:44;;;;;;;0.10;0.10;;;;;;;14.67;80.67;101462.66;5103285;28;20027;-78
2024/02/15 09:12:11;;;;;;;0.10;0.10;;;;;;;14.75;80.61;101470.44;5101683;28;20099;-78
2024/02/15 09:14:39;;;;;;;0.10;0.10;;;;;;;14.78;80.49;101478.34;5092704;28;20446;-78
2024/02/15 09:17:07;;;;;;;0.10;0.10;;;;;;;14.83;80.34;101466.66;5091604;28;20404;-78
2024/02/15 09:19:35;;;;;;;0.10;0.10;;;;;;;14.84;80.64;101478.19;5093667;28;20059;-76
2024/02/15 09:22:04;;;;;;;0.00;0.00;;;;;;;14.81;80.28;101473.81;5093826;28;20415;-78
2024/02/15 09:24:33;;;;;;;0.40;0.40;;;;;;;14.82;80.29;101477.38;5087975;28;20043;-77
2024/02/15 09:27:00;;;;;;;0.22;0.22;;;;;;;14.79;80.34;101469.44;5096209;28;20092;-77
2024/02/15 09:29:29;;;;;;;0.10;0.10;;;;;;;14.82;80.18;101472.91;5098357;28;20016;-77
2024/02/15 09:31:56;;;;;;;0.20;0.20;;;;;;;14.82;80.18;101470.22;5111781;28;20034;-78
2024/02/15 09:34:23;;;;;;;0.90;0.90;;;;;;;14.78;80.05;101471.25;5113058;28;20090;-80
2024/02/15 09:36:49;;;;;;;0.30;0.30;;;;;;;14.84;80.23;101468.41;5106841;28;20476;-78
2024/02/15 09:39:15;;;;;;;0.20;0.20;;;;;;;14.91;80.04;101466.44;5114447;28;20032;-78
2024/02/15 09:41:43;;;;;;;0.88;0.88;;;;;;;14.94;79.78;101470.81;5114041;28;20028;-79
2024/02/15 09:44:10;;;;;;;0.55;0.55;;;;;;;14.90;79.59;101474.50;5113741;28;20023;-78
2024/02/15 09:46:41;;;;;;;0.10;0.10;;;;;;;15.06;79.86;101473.13;5107034;28;20200;-79
2024/02/15 09:49:07;;;;;;;0.20;0.20;;;;;;;15.04;79.41;101472.28;5107698;28;20513;-80
2024/02/15 09:51:35;;;;;;;0.10;0.10;;;;;;;15.05;79.49;101474.03;5108302;28;20384;-82
2024/02/15 09:54:01;;;;;;;0.20;0.20;;;;;;;15.12;79.41;101464.94;5108857;28;20024;-79
2024/02/15 09:56:30;;;;;;;0.10;0.10;;;;;;;15.04;79.28;101469.63;5109184;28;20028;-79
2024/02/15 09:58:59;;;;;;;0.95;0.95;;;;;;;15.11;78.86;101467.66;5111189;28;20028;-79
2024/02/15 10:01:27;;;;;;;0.20;0.20;;;;;;;15.22;79.18;101464.69;5113080;28;20088;-79
2024/02/15 10:03:53;;;;;;;0.65;0.65;;;;;;;15.20;78.91;101462.94;5109564;28;20016;-80
2024/02/15 10:06:21;;;;;;;0.10;0.10;;;;;;;15.30;78.61;101465.31;5112483;28;20020;-79
2024/02/15 10:08:47;;;;;;;0.20;0.20;;;;;;;15.28;78.23;101464.50;5111938;28;20040;-78
2024/02/15 10:11:13;;;;;;;0.20;0.20;;;;;;;15.25;78.10;101460.09;5111323;28;20024;-78
2024/02/15 10:13:39;;;;;;;0.98;0.98;;;;;;;15.42;78.09;101467.63;5111526;28;20034;-79
2024/02/15 10:16:25;;;;;;;0.10;0.10;;;;;;;15.55;77.71;101461.91;5110763;28;20028;-80
2024/02/15 10:18:51;;;;;;;0.10;0.10;;;;;;;15.50;77.63;101470.06;5110842;28;20032;-80
2024/02/15 10:21:29;;;;;;;0.10;0.10;;;;;;;15.49;77.16;101471.88;5104940;28;20064;-79
2024/02/15 10:24:11;;;;;;;0.10;0.10;;;;;;;15.56;77.01;101479.69;5095189;28;20052;-80
2024/02/15 10:26:37;;;;;;;0.10;0.10;;;;;;;15.55;76.76;101472.59;5103945;28;20059;-78
2024/02/15 10:29:11;;;;;;;0.10;0.10;;;;;;;15.58;76.79;101475.19;5110548;28;20027;-79
2024/02/15 10:31:41;;;;;;;0.30;0.30;;;;;;;15.48;77.14;101472.78;5107450;28;20056;-78
2024/02/15 10:34:08;;;;;;;0.73;0.73;;;;;;;15.61;77.20;101467.06;5102368;28;20025;-80
2024/02/15 10:36:35;;;;;;;0.20;0.20;;;;;;;15.64;77.26;101472.31;5096349;28;20074;-78
2024/02/15 10:39:19;;;;;;;0.20;0.20;;;;;;;15.67;76.47;101467.72;5097004;28;20063;-79
2024/02/15 10:44:26;;;;;;;0.10;0.10;;;;;;;15.73;77.23;101458.66;5119381;27;20391;-78
2024/02/15 10:46:53;;;;;;;0.30;0.30;;;;;;;15.79;76.28;101463.81;5110918;28;20031;-78
2024/02/15 10:49:25;;;;;;;0.10;0.10;;;;;;;15.85;76.53;101458.31;5123523;28;20039;-78
2024/02/15 10:54:50;;;;;;;0.15;0.15;;;;;;;15.98;75.83;101456.09;5103467;27;20449;-78
2024/02/15 10:57:22;;;;;;;0.03;0.03;;;;;;;16.01;76.15;101453.34;5077515;28;20066;-78
2024/02/15 10:59:57;;;;;;;0.32;0.32;;;;;;;16.07;75.92;101462.94;5083314;28;20048;-77
2024/02/15 11:05:10;;;;;;;0.10;0.10;;;;;;;16.13;75.84;101444.03;5120043;27;20397;-77
2024/02/15 11:07:36;;;;;;;0.10;0.10;;;;;;;16.06;75.62;101450.50;5100859;28;20096;-77
2024/02/15 11:10:08;;;;;;;0.47;0.47;;;;;;;16.13;75.80;101454.72;5096621;28;20060;-78
2024/02/15 11:12:35;;;;;;;0.10;0.10;;;;;;;16.23;76.08;101443.72;5086483;28;20111;-76
2024/02/15 11:15:01;;;;;;;0.10;0.10;;;;;;;16.25;75.78;101447.19;5084932;28;20036;-77
2024/02/15 11:17:49;;;;;;;0.50;0.50;;;;;;;16.42;75.69;101434.13;5079476;28;20036;-77
2024/02/15 11:23:23;;;;;;;0.15;0.15;;;;;;;16.37;75.51;101433.41;5083842;28;20134;-78
2024/02/15 11:25:49;;;;;;;2.83;1.75;;;;;;;16.35;75.46;101429.94;5062068;28;20041;-78
2024/02/15 11:30:59;;;;;;;0.10;0.10;;;;;;;16.57;75.42;101426.50;5118445;27;20372;-79
2024/02/15 11:33:32;;;;;;;0.10;0.10;;;;;;;16.77;75.27;101423.09;5115869;28;20032;-78
2024/02/15 11:36:13;;;;;;;0.60;0.60;;;;;;;16.90;75.27;101415.50;5108534;28;20040;-78
2024/02/15 11:38:41;;;;;;;0.32;0.32;;;;;;;16.77;74.89;101418.63;5116129;28;20020;-78
2024/02/15 11:41:10;;;;;;;0.60;0.57;;;;;;;16.79;74.18;101411.41;5117146;28;20111;-78
2024/02/15 11:46:20;;;;;;;0.25;0.25;;;;;;;16.82;74.55;101402.38;5122171;27;20875;-78
2024/02/15 11:48:48;;;;;;;0.05;0.05;;;;;;;16.90;74.54;101394.09;5123318;28;20040;-79
2024/02/15 11:51:42;;;;;;;0.05;0.05;;;;;;;17.01;74.33;101394.56;5123324;28;20027;-78
2024/02/15 11:54:11;;;;;;;0.10;0.10;;;;;;;16.87;74.30;101392.38;5122685;28;20017;-79
2024/02/15 11:59:42;;;;;;;0.35;0.25;;;;;;;17.04;73.80;101388.22;5084065;28;20379;-78